createdAt,value
2018-06-24T00:00:33.581Z,997.93
2018-06-24T00:01:33.608Z,997.92
2018-06-24T00:02:33.634Z,997.96
2018-06-24T00:03:33.677Z,997.89
2018-06-24T00:04:33.690Z,997.89
2018-06-24T00:05:33.738Z,997.92
2018-06-24T00:06:33.744Z,997.92
2018-06-24T00:07:33.773Z,997.91
2018-06-24T00:08:33.800Z,997.93
2018-06-24T00:09:33.829Z,997.91
2018-06-24T00:10:33.855Z,997.92
2018-06-24T00:11:33.887Z,997.88
2018-06-24T00:12:33.910Z,997.85
2018-06-24T00:13:33.966Z,997.85
2018-06-24T00:14:33.964Z,997.86
2018-06-24T00:15:33.991Z,997.87
2018-06-24T00:16:34.019Z,997.89
2018-06-24T00:17:34.046Z,997.86
2018-06-24T00:18:34.073Z,997.83
2018-06-24T00:19:34.101Z,997.80
2018-06-24T00:20:34.128Z,997.76
2018-06-24T00:21:34.193Z,997.79
2018-06-24T00:22:34.182Z,997.76
2018-06-24T00:23:34.211Z,997.75
2018-06-24T00:24:34.238Z,997.76
2018-06-24T00:25:34.274Z,997.76
2018-06-24T00:26:34.293Z,997.73
2018-06-24T00:27:34.320Z,997.74
2018-06-24T00:28:34.347Z,997.72
2018-06-24T00:29:34.375Z,997.72
2018-06-24T00:30:34.401Z,997.74
2018-06-24T00:31:34.430Z,997.76
2018-06-24T00:32:34.457Z,997.73
2018-06-24T00:33:34.485Z,997.73
2018-06-24T00:34:34.516Z,997.76
2018-06-24T00:35:34.539Z,997.77
2018-06-24T00:36:34.568Z,997.78
2018-06-24T00:37:34.595Z,997.82
2018-06-24T00:38:34.621Z,997.76
2018-06-24T00:39:34.669Z,997.79
2018-06-24T00:40:34.681Z,997.74
2018-06-24T00:41:34.704Z,997.78
2018-06-24T00:42:34.730Z,997.78
2018-06-24T00:43:34.812Z,997.74
2018-06-24T00:44:34.786Z,997.72
2018-06-24T00:45:34.813Z,997.74
2018-06-24T00:46:34.840Z,997.74
2018-06-24T00:47:34.868Z,997.73
2018-06-24T00:48:34.896Z,997.72
2018-06-24T00:49:34.935Z,997.73
2018-06-24T00:50:34.949Z,997.73
2018-06-24T00:51:34.977Z,997.75
2018-06-24T00:52:35.005Z,997.76
2018-06-24T00:53:35.033Z,997.78
2018-06-24T00:54:35.059Z,997.78
2018-06-24T00:55:35.090Z,997.81
2018-06-24T00:56:35.114Z,997.82
2018-06-24T00:57:35.141Z,997.82
2018-06-24T00:58:35.168Z,997.82
2018-06-24T00:59:35.196Z,997.82
2018-06-24T01:00:35.224Z,997.84
2018-06-24T01:01:35.251Z,997.85
2018-06-24T01:02:35.280Z,997.84
2018-06-24T01:03:35.309Z,997.86
2018-06-24T01:04:35.332Z,997.85
2018-06-24T01:05:35.361Z,997.88
2018-06-24T01:06:35.387Z,997.88
2018-06-24T01:07:35.415Z,997.91
2018-06-24T01:08:35.443Z,997.94
2018-06-24T01:09:35.471Z,997.96
2018-06-24T01:10:35.496Z,997.96
2018-06-24T01:11:35.563Z,997.99
2018-06-24T01:12:35.555Z,997.99
2018-06-24T01:13:35.580Z,998.01
2018-06-24T01:14:35.606Z,997.99
2018-06-24T01:15:35.634Z,998.02
2018-06-24T01:16:35.661Z,997.98
2018-06-24T01:17:35.691Z,997.96
2018-06-24T01:18:35.716Z,998.03
2018-06-24T01:19:35.743Z,997.98
2018-06-24T01:20:35.771Z,997.99
2018-06-24T01:21:35.807Z,997.98
2018-06-24T01:22:35.830Z,998.00
2018-06-24T01:23:35.852Z,997.98
2018-06-24T01:24:35.882Z,997.97
2018-06-24T01:25:35.908Z,997.99
2018-06-24T01:26:35.935Z,998.01
2018-06-24T01:27:35.962Z,998.01
2018-06-24T01:28:36.004Z,998.02
2018-06-24T01:29:36.018Z,998.00
2018-06-24T01:30:36.044Z,998.00
2018-06-24T01:31:36.072Z,997.97
2018-06-24T01:32:36.100Z,997.96
2018-06-24T01:33:36.127Z,997.97
2018-06-24T01:34:36.167Z,997.90
2018-06-24T01:35:36.182Z,997.93
2018-06-24T01:36:36.209Z,997.93
2018-06-24T01:37:36.236Z,997.95
2018-06-24T01:38:36.262Z,997.95
2018-06-24T01:39:36.291Z,997.99
2018-06-24T01:40:36.318Z,997.98
2018-06-24T01:41:36.356Z,997.97
2018-06-24T01:42:36.372Z,998.03
2018-06-24T01:43:36.400Z,997.99
2018-06-24T01:44:36.427Z,998.03
2018-06-24T01:45:36.456Z,997.99
2018-06-24T01:46:36.482Z,998.01
2018-06-24T01:47:36.533Z,998.02
2018-06-24T01:48:36.538Z,998.02
2018-06-24T01:49:36.565Z,998.06
2018-06-24T01:50:36.592Z,998.06
2018-06-24T01:51:36.644Z,998.04
2018-06-24T01:52:36.647Z,998.06
2018-06-24T01:53:36.675Z,998.05
2018-06-24T01:54:36.701Z,998.11
2018-06-24T01:55:36.729Z,998.09
2018-06-24T01:56:36.757Z,998.08
2018-06-24T01:57:36.788Z,998.14
2018-06-24T01:58:36.811Z,998.13
2018-06-24T01:59:36.838Z,998.13
2018-06-24T02:00:36.867Z,998.13
2018-06-24T02:01:36.894Z,998.10
2018-06-24T02:02:36.920Z,998.09
2018-06-24T02:03:36.948Z,998.05
2018-06-24T02:04:36.975Z,998.07
2018-06-24T02:05:37.006Z,998.09
2018-06-24T02:06:37.073Z,998.05
2018-06-24T02:07:37.057Z,998.06
2018-06-24T02:08:37.084Z,998.07
2018-06-24T02:09:37.112Z,998.06
2018-06-24T02:10:37.138Z,998.01
2018-06-24T02:11:37.166Z,998.03
2018-06-24T02:12:37.196Z,998.08
2018-06-24T02:13:37.222Z,998.05
2018-06-24T02:14:37.301Z,998.04
2018-06-24T02:15:37.276Z,998.05
2018-06-24T02:16:37.303Z,998.05
2018-06-24T02:17:37.331Z,998.06
2018-06-24T02:18:37.361Z,998.09
2018-06-24T02:19:37.384Z,998.09
2018-06-24T02:20:37.412Z,998.10
2018-06-24T02:21:37.440Z,998.11
2018-06-24T02:22:37.515Z,998.11
2018-06-24T02:23:37.494Z,998.13
2018-06-24T02:24:37.522Z,998.14
2018-06-24T02:25:37.549Z,998.16
2018-06-24T02:26:37.576Z,998.18
2018-06-24T02:27:37.604Z,998.17
2018-06-24T02:28:37.631Z,998.16
2018-06-24T02:29:37.659Z,998.13
2018-06-24T02:30:37.686Z,998.13
2018-06-24T02:31:37.713Z,998.14
2018-06-24T02:32:37.742Z,998.14
2018-06-24T02:33:37.768Z,998.17
2018-06-24T02:34:37.796Z,998.19
2018-06-24T02:35:37.842Z,998.20
2018-06-24T02:36:37.850Z,998.19
2018-06-24T02:37:37.879Z,998.13
2018-06-24T02:38:37.905Z,998.16
2018-06-24T02:39:37.932Z,998.13
2018-06-24T02:40:37.960Z,998.12
2018-06-24T02:41:37.995Z,998.17
2018-06-24T02:42:38.015Z,998.16
2018-06-24T02:43:38.041Z,998.20
2018-06-24T02:44:38.068Z,998.20
2018-06-24T02:45:38.098Z,998.18
2018-06-24T02:46:38.124Z,998.17
2018-06-24T02:47:38.150Z,998.12
2018-06-24T02:48:38.178Z,998.19
2018-06-24T02:49:38.208Z,998.16
2018-06-24T02:50:38.233Z,998.12
2018-06-24T02:51:38.259Z,998.09
2018-06-24T02:52:38.287Z,998.09
2018-06-24T02:53:38.340Z,998.09
2018-06-24T02:54:38.344Z,998.04
2018-06-24T02:55:38.369Z,998.06
2018-06-24T02:56:38.425Z,998.06
2018-06-24T02:57:38.425Z,998.04
2018-06-24T02:58:38.456Z,998.07
2018-06-24T02:59:38.478Z,998.11
2018-06-24T03:00:38.514Z,998.09
2018-06-24T03:01:38.534Z,998.10
2018-06-24T03:02:38.569Z,998.10
2018-06-24T03:03:38.591Z,998.10
2018-06-24T03:04:38.615Z,998.10
2018-06-24T03:05:38.643Z,998.12
2018-06-24T03:06:38.670Z,998.10
2018-06-24T03:07:38.747Z,998.12
2018-06-24T03:08:38.726Z,998.12
2018-06-24T03:09:38.753Z,998.15
2018-06-24T03:10:38.787Z,998.13
2018-06-24T03:11:38.849Z,998.12
2018-06-24T03:12:38.834Z,998.14
2018-06-24T03:13:38.861Z,998.15
2018-06-24T03:14:38.888Z,998.14
2018-06-24T03:15:38.957Z,998.17
2018-06-24T03:16:38.946Z,998.15
2018-06-24T03:17:38.971Z,998.16
2018-06-24T03:18:39.004Z,998.16
2018-06-24T03:19:39.024Z,998.17
2018-06-24T03:20:39.053Z,998.20
2018-06-24T03:21:39.079Z,998.17
2018-06-24T03:22:39.107Z,998.21
2018-06-24T03:23:39.136Z,998.21
2018-06-24T03:24:39.161Z,998.21
2018-06-24T03:25:39.189Z,998.22
2018-06-24T03:26:39.228Z,998.19
2018-06-24T03:27:39.243Z,998.23
2018-06-24T03:28:39.271Z,998.24
2018-06-24T03:29:39.324Z,998.21
2018-06-24T03:30:39.325Z,998.22
2018-06-24T03:31:39.356Z,998.22
2018-06-24T03:32:39.380Z,998.21
2018-06-24T03:33:39.407Z,998.20
2018-06-24T03:34:39.435Z,998.18
2018-06-24T03:35:39.469Z,998.19
2018-06-24T03:36:39.490Z,998.17
2018-06-24T03:37:39.517Z,998.21
2018-06-24T03:38:39.543Z,998.21
2018-06-24T03:39:39.570Z,998.23
2018-06-24T03:40:39.600Z,998.24
2018-06-24T03:41:39.647Z,998.23
2018-06-24T03:42:39.653Z,998.25
2018-06-24T03:43:39.697Z,998.23
2018-06-24T03:44:39.708Z,998.24
2018-06-24T03:45:39.735Z,998.27
2018-06-24T03:46:39.762Z,998.27
2018-06-24T03:47:39.789Z,998.27
2018-06-24T03:48:39.857Z,998.26
2018-06-24T03:49:39.844Z,998.23
2018-06-24T03:50:39.872Z,998.24
2018-06-24T03:51:39.899Z,998.27
2018-06-24T03:52:39.928Z,998.26
2018-06-24T03:53:39.970Z,998.25
2018-06-24T03:54:40.018Z,998.23
2018-06-24T03:55:40.038Z,998.23
2018-06-24T03:56:40.036Z,998.23
2018-06-24T03:57:40.064Z,998.25
2018-06-24T03:58:40.091Z,998.25
2018-06-24T03:59:40.124Z,998.26
2018-06-24T04:00:40.145Z,998.30
2018-06-24T04:01:40.173Z,998.29
2018-06-24T04:02:40.199Z,998.29
2018-06-24T04:03:40.226Z,998.26
2018-06-24T04:04:40.281Z,998.28
2018-06-24T04:05:40.282Z,998.27
2018-06-24T04:06:40.309Z,998.25
2018-06-24T04:07:40.337Z,998.28
2018-06-24T04:08:40.364Z,998.29
2018-06-24T04:09:40.392Z,998.30
2018-06-24T04:10:40.418Z,998.30
2018-06-24T04:11:40.447Z,998.35
2018-06-24T04:12:40.474Z,998.34
2018-06-24T04:13:40.501Z,998.34
2018-06-24T04:14:40.533Z,998.35
2018-06-24T04:15:40.590Z,998.34
2018-06-24T04:16:40.583Z,998.35
2018-06-24T04:17:40.611Z,998.35
2018-06-24T04:18:40.637Z,998.38
2018-06-24T04:19:40.666Z,998.38
2018-06-24T04:20:40.694Z,998.41
2018-06-24T04:21:40.720Z,998.44
2018-06-24T04:22:40.761Z,998.48
2018-06-24T04:23:40.789Z,998.45
2018-06-24T04:24:40.803Z,998.51
2018-06-24T04:25:40.843Z,998.49
2018-06-24T04:26:40.858Z,998.49
2018-06-24T04:27:40.909Z,998.49
2018-06-24T04:28:40.911Z,998.50
2018-06-24T04:29:40.939Z,998.50
2018-06-24T04:30:40.965Z,998.52
2018-06-24T04:31:40.993Z,998.49
2018-06-24T04:32:41.021Z,998.51
2018-06-24T04:33:41.048Z,998.54
2018-06-24T04:34:41.075Z,998.55
2018-06-24T04:35:41.103Z,998.58
2018-06-24T04:36:41.130Z,998.55
2018-06-24T04:37:41.158Z,998.54
2018-06-24T04:38:41.198Z,998.55
2018-06-24T04:39:41.212Z,998.56
2018-06-24T04:40:41.240Z,998.52
2018-06-24T04:41:41.330Z,998.55
2018-06-24T04:42:41.325Z,998.54
2018-06-24T04:43:41.322Z,998.53
2018-06-24T04:44:41.349Z,998.60
2018-06-24T04:45:41.377Z,998.59
2018-06-24T04:46:41.404Z,998.59
2018-06-24T04:47:41.431Z,998.61
2018-06-24T04:48:41.459Z,998.66
2018-06-24T04:49:41.487Z,998.65
2018-06-24T04:50:41.513Z,998.67
2018-06-24T04:51:41.601Z,998.66
2018-06-24T04:52:41.569Z,998.68
2018-06-24T04:53:41.596Z,998.68
2018-06-24T04:54:41.623Z,998.70
2018-06-24T04:55:41.650Z,998.70
2018-06-24T04:56:41.679Z,998.70
2018-06-24T04:57:41.708Z,998.71
2018-06-24T04:58:41.733Z,998.69
2018-06-24T04:59:41.761Z,998.72
2018-06-24T05:00:41.789Z,998.73
2018-06-24T05:01:41.816Z,998.70
2018-06-24T05:02:41.843Z,998.67
2018-06-24T05:03:41.871Z,998.70
2018-06-24T05:04:41.898Z,998.69
2018-06-24T05:05:41.940Z,998.68
2018-06-24T05:06:41.952Z,998.71
2018-06-24T05:07:41.980Z,998.68
2018-06-24T05:08:42.008Z,998.69
2018-06-24T05:09:42.052Z,998.73
2018-06-24T05:10:42.064Z,998.73
2018-06-24T05:11:42.089Z,998.71
2018-06-24T05:12:42.117Z,998.71
2018-06-24T05:13:42.145Z,998.69
2018-06-24T05:14:42.172Z,998.74
2018-06-24T05:15:42.199Z,998.70
2018-06-24T05:16:42.227Z,998.68
2018-06-24T05:17:42.254Z,998.72
2018-06-24T05:18:42.282Z,998.75
2018-06-24T05:19:42.310Z,998.72
2018-06-24T05:20:42.336Z,998.71
2018-06-24T05:21:42.395Z,998.71
2018-06-24T05:22:42.402Z,998.72
2018-06-24T05:23:42.439Z,998.74
2018-06-24T05:24:42.447Z,998.75
2018-06-24T05:25:42.475Z,998.74
2018-06-24T05:26:42.501Z,998.74
2018-06-24T05:27:42.529Z,998.76
2018-06-24T05:28:42.556Z,998.77
2018-06-24T05:29:42.584Z,998.77
2018-06-24T05:30:42.610Z,998.79
2018-06-24T05:31:42.638Z,998.78
2018-06-24T05:32:42.666Z,998.78
2018-06-24T05:33:42.694Z,998.80
2018-06-24T05:34:42.753Z,998.74
2018-06-24T05:35:42.748Z,998.76
2018-06-24T05:36:42.776Z,998.76
2018-06-24T05:37:42.815Z,998.75
2018-06-24T05:38:42.830Z,998.73
2018-06-24T05:39:42.858Z,998.73
2018-06-24T05:40:42.886Z,998.75
2018-06-24T05:41:42.913Z,998.76
2018-06-24T05:42:42.946Z,998.77
2018-06-24T05:43:42.967Z,998.77
2018-06-24T05:44:43.002Z,998.77
2018-06-24T05:45:43.023Z,998.77
2018-06-24T05:46:43.050Z,998.77
2018-06-24T05:47:43.078Z,998.79
2018-06-24T05:48:43.196Z,998.77
2018-06-24T05:49:43.164Z,998.79
2018-06-24T05:50:43.160Z,998.77
2018-06-24T05:51:43.188Z,998.77
2018-06-24T05:52:43.252Z,998.73
2018-06-24T05:53:43.244Z,998.76
2018-06-24T05:54:43.271Z,998.74
2018-06-24T05:55:43.299Z,998.78
2018-06-24T05:56:43.327Z,998.75
2018-06-24T05:57:43.354Z,998.77
2018-06-24T05:58:43.383Z,998.79
2018-06-24T05:59:43.410Z,998.80
2018-06-24T06:00:43.437Z,998.83
2018-06-24T06:01:43.466Z,998.83
2018-06-24T06:02:43.490Z,998.84
2018-06-24T06:03:43.537Z,998.85
2018-06-24T06:04:43.568Z,998.88
2018-06-24T06:05:43.574Z,998.85
2018-06-24T06:06:43.601Z,998.89
2018-06-24T06:07:43.629Z,998.89
2018-06-24T06:08:43.656Z,998.88
2018-06-24T06:09:43.686Z,998.88
2018-06-24T06:10:43.711Z,998.88
2018-06-24T06:11:43.802Z,998.87
2018-06-24T06:12:43.772Z,998.91
2018-06-24T06:13:43.796Z,998.92
2018-06-24T06:14:43.821Z,998.86
2018-06-24T06:15:43.848Z,998.90
2018-06-24T06:16:43.877Z,998.86
2018-06-24T06:17:43.908Z,998.88
2018-06-24T06:18:43.931Z,998.90
2018-06-24T06:19:43.961Z,998.88
2018-06-24T06:20:43.987Z,998.87
2018-06-24T06:21:44.054Z,998.90
2018-06-24T06:22:44.042Z,998.92
2018-06-24T06:23:44.068Z,998.93
2018-06-24T06:24:44.097Z,998.95
2018-06-24T06:25:44.125Z,998.96
2018-06-24T06:26:44.154Z,998.94
2018-06-24T06:27:44.179Z,998.93
2018-06-24T06:28:44.233Z,998.92
2018-06-24T06:29:44.238Z,998.94
2018-06-24T06:30:44.263Z,998.87
2018-06-24T06:31:44.290Z,998.94
2018-06-24T06:32:44.318Z,998.90
2018-06-24T06:33:44.347Z,998.93
2018-06-24T06:34:44.386Z,998.92
2018-06-24T06:35:44.400Z,998.90
2018-06-24T06:36:44.492Z,998.96
2018-06-24T06:37:44.457Z,998.94
2018-06-24T06:38:44.483Z,998.96
2018-06-24T06:39:44.515Z,998.95
2018-06-24T06:40:44.539Z,998.92
2018-06-24T06:41:44.603Z,998.97
2018-06-24T06:42:44.594Z,999.00
2018-06-24T06:43:44.621Z,999.02
2018-06-24T06:44:44.648Z,999.03
2018-06-24T06:45:44.869Z,999.02
2018-06-24T06:46:44.714Z,999.01
2018-06-24T06:47:44.731Z,999.01
2018-06-24T06:48:44.759Z,999.01
2018-06-24T06:49:44.788Z,998.99
2018-06-24T06:50:44.814Z,999.00
2018-06-24T06:51:44.842Z,999.01
2018-06-24T06:52:44.870Z,998.98
2018-06-24T06:53:44.898Z,998.98
2018-06-24T06:54:44.928Z,998.93
2018-06-24T06:55:44.952Z,998.94
2018-06-24T06:56:44.980Z,998.92
2018-06-24T06:57:45.044Z,998.92
2018-06-24T06:58:45.036Z,998.93
2018-06-24T06:59:45.063Z,998.92
2018-06-24T07:00:45.091Z,998.94
2018-06-24T07:01:45.120Z,998.96
2018-06-24T07:02:45.146Z,998.95
2018-06-24T07:03:45.173Z,998.95
2018-06-24T07:04:45.201Z,999.02
2018-06-24T07:05:45.268Z,998.99
2018-06-24T07:06:45.258Z,999.01
2018-06-24T07:07:45.286Z,999.00
2018-06-24T07:08:45.313Z,999.01
2018-06-24T07:09:45.339Z,999.03
2018-06-24T07:10:45.366Z,999.02
2018-06-24T07:11:45.394Z,999.00
2018-06-24T07:12:45.422Z,998.97
2018-06-24T07:13:45.449Z,998.99
2018-06-24T07:14:45.476Z,998.98
2018-06-24T07:15:45.505Z,999.00
2018-06-24T07:16:45.537Z,999.01
2018-06-24T07:17:45.560Z,998.98
2018-06-24T07:18:45.587Z,999.00
2018-06-24T07:19:45.615Z,999.05
2018-06-24T07:20:45.643Z,999.04
2018-06-24T07:21:45.671Z,999.04
2018-06-24T07:22:45.736Z,999.04
2018-06-24T07:23:45.726Z,999.05
2018-06-24T07:24:45.753Z,999.02
2018-06-24T07:25:45.781Z,999.02
2018-06-24T07:26:45.809Z,999.02
2018-06-24T07:27:45.857Z,999.00
2018-06-24T07:28:45.864Z,999.03
2018-06-24T07:29:45.892Z,998.99
2018-06-24T07:30:45.919Z,998.99
2018-06-24T07:31:45.946Z,998.99
2018-06-24T07:32:45.979Z,998.98
2018-06-24T07:33:46.216Z,998.96
2018-06-24T07:34:46.029Z,999.00
2018-06-24T07:35:46.058Z,999.02
2018-06-24T07:36:46.085Z,998.96
2018-06-24T07:37:46.112Z,999.02
2018-06-24T07:38:46.140Z,998.95
2018-06-24T07:39:46.168Z,999.01
2018-06-24T07:40:46.195Z,999.06
2018-06-24T07:41:46.224Z,999.01
2018-06-24T07:42:46.250Z,999.04
2018-06-24T07:43:46.279Z,999.02
2018-06-24T07:44:46.306Z,999.03
2018-06-24T07:45:46.334Z,999.01
2018-06-24T07:46:46.361Z,999.01
2018-06-24T07:47:46.388Z,998.95
2018-06-24T07:48:46.420Z,998.95
2018-06-24T07:49:46.445Z,998.94
2018-06-24T07:50:46.475Z,998.90
2018-06-24T07:51:46.512Z,998.90
2018-06-24T07:52:46.528Z,998.91
2018-06-24T07:53:46.601Z,998.90
2018-06-24T07:54:46.582Z,998.92
2018-06-24T07:55:46.611Z,998.90
2018-06-24T07:56:46.638Z,998.96
2018-06-24T07:57:46.673Z,998.95
2018-06-24T07:58:46.693Z,998.95
2018-06-24T07:59:46.720Z,998.96
2018-06-24T08:00:46.757Z,998.93
2018-06-24T08:01:46.776Z,998.94
2018-06-24T08:02:46.804Z,998.94
2018-06-24T08:03:46.831Z,998.96
2018-06-24T08:04:46.859Z,998.94
2018-06-24T08:05:46.890Z,998.93
2018-06-24T08:06:46.914Z,998.94
2018-06-24T08:07:46.942Z,998.93
2018-06-24T08:08:46.970Z,998.97
2018-06-24T08:09:47.004Z,998.94
2018-06-24T08:10:47.024Z,998.94
2018-06-24T08:11:47.053Z,998.96
2018-06-24T08:12:47.081Z,998.91
2018-06-24T08:13:47.114Z,998.93
2018-06-24T08:14:47.135Z,998.89
2018-06-24T08:15:47.164Z,998.91
2018-06-24T08:16:47.191Z,998.89
2018-06-24T08:17:47.219Z,998.92
2018-06-24T08:18:47.249Z,998.91
2018-06-24T08:19:47.275Z,998.93
2018-06-24T08:20:47.302Z,998.93
2018-06-24T08:21:47.329Z,998.94
2018-06-24T08:22:47.415Z,998.92
2018-06-24T08:23:47.397Z,998.94
2018-06-24T08:24:47.412Z,998.93
2018-06-24T08:25:47.441Z,998.95
2018-06-24T08:26:47.468Z,998.93
2018-06-24T08:27:47.495Z,998.92
2018-06-24T08:28:47.523Z,998.93
2018-06-24T08:29:47.552Z,998.92
2018-06-24T08:30:47.578Z,998.91
2018-06-24T08:31:47.607Z,998.99
2018-06-24T08:32:47.634Z,998.97
2018-06-24T08:33:47.662Z,999.00
2018-06-24T08:34:47.689Z,999.02
2018-06-24T08:35:47.716Z,999.05
2018-06-24T08:36:47.745Z,999.04
2018-06-24T08:37:47.773Z,999.04
2018-06-24T08:38:47.801Z,999.02
2018-06-24T08:39:47.861Z,999.04
2018-06-24T08:40:47.860Z,998.98
2018-06-24T08:41:47.884Z,998.99
2018-06-24T08:42:47.924Z,999.01
2018-06-24T08:43:47.938Z,999.00
2018-06-24T08:44:47.966Z,998.98
2018-06-24T08:45:47.993Z,998.96
2018-06-24T08:46:48.021Z,998.99
2018-06-24T08:47:48.048Z,999.01
2018-06-24T08:48:48.077Z,998.99
2018-06-24T08:49:48.105Z,998.96
2018-06-24T08:50:48.132Z,998.96
2018-06-24T08:51:48.160Z,998.92
2018-06-24T08:52:48.187Z,998.91
2018-06-24T08:53:48.215Z,998.89
2018-06-24T08:54:48.243Z,998.89
2018-06-24T08:55:48.270Z,998.89
2018-06-24T08:56:48.302Z,998.85
2018-06-24T08:57:48.326Z,998.89
2018-06-24T08:58:48.354Z,998.91
2018-06-24T08:59:48.380Z,998.89
2018-06-24T09:00:48.409Z,998.87
2018-06-24T09:01:48.436Z,998.88
2018-06-24T09:02:48.463Z,998.92
2018-06-24T09:03:48.492Z,998.92
2018-06-24T09:04:48.519Z,998.91
2018-06-24T09:05:48.547Z,998.92
2018-06-24T09:06:48.574Z,998.94
2018-06-24T09:07:48.602Z,998.94
2018-06-24T09:08:48.630Z,998.93
2018-06-24T09:09:48.658Z,998.90
2018-06-24T09:10:48.685Z,998.89
2018-06-24T09:11:48.713Z,998.88
2018-06-24T09:12:48.741Z,998.84
2018-06-24T09:13:48.789Z,998.87
2018-06-24T09:14:48.801Z,998.84
2018-06-24T09:15:48.840Z,998.82
2018-06-24T09:16:48.851Z,998.79
2018-06-24T09:17:48.880Z,998.81
2018-06-24T09:18:48.907Z,998.78
2018-06-24T09:19:48.934Z,998.77
2018-06-24T09:20:48.963Z,998.75
2018-06-24T09:21:48.991Z,998.78
2018-06-24T09:22:49.017Z,998.72
2018-06-24T09:23:49.045Z,998.75
2018-06-24T09:24:49.073Z,998.75
2018-06-24T09:25:49.101Z,998.77
2018-06-24T09:26:49.128Z,998.79
2018-06-24T09:27:49.156Z,998.78
2018-06-24T09:28:49.184Z,998.81
2018-06-24T09:29:49.212Z,998.79
2018-06-24T09:30:49.277Z,998.82
2018-06-24T09:31:49.267Z,998.79
2018-06-24T09:32:49.294Z,998.83
2018-06-24T09:33:49.322Z,998.80
2018-06-24T09:34:49.350Z,998.83
2018-06-24T09:35:49.377Z,998.89
2018-06-24T09:36:49.405Z,998.85
2018-06-24T09:37:49.433Z,998.90
2018-06-24T09:38:49.464Z,998.90
2018-06-24T09:39:49.488Z,998.88
2018-06-24T09:40:49.516Z,998.89
2018-06-24T09:41:49.548Z,998.90
2018-06-24T09:42:49.571Z,998.87
2018-06-24T09:43:49.599Z,998.86
2018-06-24T09:44:49.627Z,998.84
2018-06-24T09:45:49.655Z,998.82
2018-06-24T09:46:49.681Z,998.83
2018-06-24T09:47:49.712Z,998.83
2018-06-24T09:48:49.739Z,998.85
2018-06-24T09:49:49.765Z,998.86
2018-06-24T09:50:49.793Z,998.90
2018-06-24T09:51:49.821Z,998.89
2018-06-24T09:52:49.903Z,998.90
2018-06-24T09:53:49.882Z,998.88
2018-06-24T09:54:49.904Z,998.88
2018-06-24T09:55:49.932Z,998.85
2018-06-24T09:56:49.960Z,998.92
2018-06-24T09:57:49.988Z,998.88
2018-06-24T09:58:50.014Z,998.86
2018-06-24T09:59:50.043Z,998.90
2018-06-24T10:00:50.089Z,998.88
2018-06-24T10:01:50.098Z,998.91
2018-06-24T10:02:50.125Z,998.92
2018-06-24T10:03:50.213Z,998.90
2018-06-24T10:04:50.211Z,998.94
2018-06-24T10:05:50.209Z,998.95
2018-06-24T10:06:50.236Z,998.95
2018-06-24T10:07:50.264Z,998.92
2018-06-24T10:08:50.291Z,998.90
2018-06-24T10:09:50.351Z,998.90
2018-06-24T10:10:50.346Z,998.87
2018-06-24T10:11:50.376Z,998.88
2018-06-24T10:12:50.402Z,998.86
2018-06-24T10:13:50.430Z,998.82
2018-06-24T10:14:50.457Z,998.83
2018-06-24T10:15:50.495Z,998.77
2018-06-24T10:16:50.516Z,998.78
2018-06-24T10:17:50.541Z,998.80
2018-06-24T10:18:50.567Z,998.83
2018-06-24T10:19:50.596Z,998.76
2018-06-24T10:20:50.626Z,998.79
2018-06-24T10:21:50.652Z,998.79
2018-06-24T10:22:50.680Z,998.79
2018-06-24T10:23:50.719Z,998.73
2018-06-24T10:24:50.735Z,998.75
2018-06-24T10:25:50.763Z,998.76
2018-06-24T10:26:50.792Z,998.76
2018-06-24T10:27:50.817Z,998.77
2018-06-24T10:28:50.845Z,998.80
2018-06-24T10:29:50.874Z,998.79
2018-06-24T10:30:50.918Z,998.77
2018-06-24T10:31:50.928Z,998.81
2018-06-24T10:32:50.956Z,998.83
2018-06-24T10:33:50.984Z,998.85
2018-06-24T10:34:51.012Z,998.85
2018-06-24T10:35:51.043Z,998.85
2018-06-24T10:36:51.067Z,998.86
2018-06-24T10:37:51.094Z,998.87
2018-06-24T10:38:51.121Z,998.82
2018-06-24T10:39:51.149Z,998.80
2018-06-24T10:40:51.178Z,998.81
2018-06-24T10:41:51.205Z,998.82
2018-06-24T10:42:51.233Z,998.85
2018-06-24T10:43:51.260Z,998.86
2018-06-24T10:44:51.288Z,998.86
2018-06-24T10:45:51.316Z,998.83
2018-06-24T10:46:51.356Z,998.78
2018-06-24T10:47:51.372Z,998.79
2018-06-24T10:48:51.402Z,998.80
2018-06-24T10:49:51.428Z,998.79
2018-06-24T10:50:51.454Z,998.81
2018-06-24T10:51:51.482Z,998.80
2018-06-24T10:52:51.565Z,998.83
2018-06-24T10:53:51.571Z,998.80
2018-06-24T10:54:51.567Z,998.75
2018-06-24T10:55:51.626Z,998.77
2018-06-24T10:56:51.651Z,998.72
2018-06-24T10:57:51.649Z,998.72
2018-06-24T10:58:51.676Z,998.69
2018-06-24T10:59:51.707Z,998.70
2018-06-24T11:00:51.731Z,998.71
2018-06-24T11:01:51.776Z,998.69
2018-06-24T11:02:51.786Z,998.64
2018-06-24T11:03:51.813Z,998.67
2018-06-24T11:04:51.844Z,998.61
2018-06-24T11:05:51.903Z,998.61
2018-06-24T11:06:51.897Z,998.60
2018-06-24T11:07:51.924Z,998.57
2018-06-24T11:08:51.952Z,998.62
2018-06-24T11:09:52.021Z,998.61
2018-06-24T11:10:52.007Z,998.61
2018-06-24T11:11:52.036Z,998.65
2018-06-24T11:12:52.064Z,998.67
2018-06-24T11:13:52.091Z,998.67
2018-06-24T11:14:52.119Z,998.71
2018-06-24T11:15:52.148Z,998.68
2018-06-24T11:16:52.175Z,998.70
2018-06-24T11:17:52.202Z,998.71
2018-06-24T11:18:52.231Z,998.71
2018-06-24T11:19:52.256Z,998.70
2018-06-24T11:20:52.285Z,998.71
2018-06-24T11:21:52.374Z,998.70
2018-06-24T11:22:52.339Z,998.70
2018-06-24T11:23:52.370Z,998.65
2018-06-24T11:24:52.395Z,998.65
2018-06-24T11:25:52.424Z,998.67
2018-06-24T11:26:52.451Z,998.71
2018-06-24T11:27:52.478Z,998.70
2018-06-24T11:28:52.506Z,998.69
2018-06-24T11:29:52.534Z,998.71
2018-06-24T11:30:52.616Z,998.74
2018-06-24T11:31:52.589Z,998.68
2018-06-24T11:32:52.617Z,998.70
2018-06-24T11:33:52.645Z,998.75
2018-06-24T11:34:52.698Z,998.73
2018-06-24T11:35:52.700Z,998.72
2018-06-24T11:36:52.731Z,998.75
2018-06-24T11:37:52.756Z,998.71
2018-06-24T11:38:52.787Z,998.70
2018-06-24T11:39:52.812Z,998.70
2018-06-24T11:40:52.839Z,998.70
2018-06-24T11:41:52.867Z,998.67
2018-06-24T11:42:52.920Z,998.68
2018-06-24T11:43:52.922Z,998.68
2018-06-24T11:44:52.950Z,998.68
2018-06-24T11:45:52.978Z,998.66
2018-06-24T11:46:53.005Z,998.64
2018-06-24T11:47:53.053Z,998.63
2018-06-24T11:48:53.061Z,998.59
2018-06-24T11:49:53.090Z,998.63
2018-06-24T11:50:53.120Z,998.58
2018-06-24T11:51:53.144Z,998.60
2018-06-24T11:52:53.194Z,998.59
2018-06-24T11:53:53.201Z,998.59
2018-06-24T11:54:53.226Z,998.58
2018-06-24T11:55:53.254Z,998.60
2018-06-24T11:56:53.327Z,998.59
2018-06-24T11:57:53.311Z,998.60
2018-06-24T11:58:53.337Z,998.60
2018-06-24T11:59:53.364Z,998.58
2018-06-24T12:00:53.393Z,998.57
2018-06-24T12:01:53.472Z,998.58
2018-06-24T12:02:53.448Z,998.59
2018-06-24T12:03:53.475Z,998.53
2018-06-24T12:04:53.504Z,998.56
2018-06-24T12:05:53.532Z,998.57
2018-06-24T12:06:53.622Z,998.56
2018-06-24T12:07:53.587Z,998.54
2018-06-24T12:08:53.614Z,998.55
2018-06-24T12:09:53.719Z,998.55
2018-06-24T12:10:53.699Z,998.52
2018-06-24T12:11:53.698Z,998.55
2018-06-24T12:12:53.726Z,998.53
2018-06-24T12:13:53.754Z,998.51
2018-06-24T12:14:53.781Z,998.49
2018-06-24T12:15:53.812Z,998.50
2018-06-24T12:16:53.837Z,998.49
2018-06-24T12:17:53.865Z,998.47
2018-06-24T12:18:53.892Z,998.51
2018-06-24T12:19:53.920Z,998.50
2018-06-24T12:20:53.948Z,998.50
2018-06-24T12:21:53.976Z,998.50
2018-06-24T12:22:54.003Z,998.53
2018-06-24T12:23:54.032Z,998.50
2018-06-24T12:24:54.059Z,998.47
2018-06-24T12:25:54.114Z,998.49
2018-06-24T12:26:54.113Z,998.49
2018-06-24T12:27:54.143Z,998.49
2018-06-24T12:28:54.170Z,998.44